sensor_id;sensor_type;location;lat;lon;timestamp;pressure;altitude;pressure_sealevel;temperature;humidity
25658;BME280;13517;59.320;18.042;2024-01-15T00:02:07;98085.91;;;-4.98;100.00
25658;BME280;13517;59.320;18.042;2024-01-15T00:04:40;98060.41;;;-5.17;100.00
25658;BME280;13517;59.320;18.042;2024-01-15T00:07:06;98055.13;;;-5.17;100.00
25658;BME280;13517;59.320;18.042;2024-01-15T00:09:32;98050.97;;;-5.23;100.00
25658;BME280;13517;59.320;18.042;2024-01-15T00:11:57;98065.97;;;-5.04;100.00
25658;BME280;13517;59.320;18.042;2024-01-15T00:14:23;98082.59;;;-5.03;100.00
25658;BME280;13517;59.320;18.042;2024-01-15T00:16:48;98076.78;;;-5.10;100.00
25658;BME280;13517;59.320;18.042;2024-01-15T00:19:19;98072.38;;;-5.10;100.00
25658;BME280;13517;59.320;18.042;2024-01-15T00:21:44;98060.25;;;-5.14;100.00
25658;BME280;13517;59.320;18.042;2024-01-15T00:24:10;98060.50;;;-5.20;100.00
25658;BME280;13517;59.320;18.042;2024-01-15T00:26:35;98080.19;;;-5.08;100.00
25658;BME280;13517;59.320;18.042;2024-01-15T00:29:01;98041.84;;;-5.35;100.00
25658;BME280;13517;59.320;18.042;2024-01-15T00:31:26;98066.84;;;-5.24;100.00
25658;BME280;13517;59.320;18.042;2024-01-15T00:33:52;98038.03;;;-5.27;100.00
25658;BME280;13517;59.320;18.042;2024-01-15T00:36:17;98074.19;;;-5.12;100.00
25658;BME280;13517;59.320;18.042;2024-01-15T00:38:44;98066.28;;;-5.12;100.00
25658;BME280;13517;59.320;18.042;2024-01-15T00:41:09;98074.34;;;-5.15;100.00
25658;BME280;13517;59.320;18.042;2024-01-15T00:43:35;98064.66;;;-5.14;100.00
25658;BME280;13517;59.320;18.042;2024-01-15T00:46:04;98062.09;;;-5.16;100.00
25658;BME280;13517;59.320;18.042;2024-01-15T00:48:30;98062.38;;;-5.22;100.00
25658;BME280;13517;59.320;18.042;2024-01-15T00:50:55;98032.91;;;-5.30;100.00
25658;BME280;13517;59.320;18.042;2024-01-15T00:53:20;98057.06;;;-5.21;100.00
25658;BME280;13517;59.320;18.042;2024-01-15T00:55:49;98024.47;;;-5.39;100.00
25658;BME280;13517;59.320;18.042;2024-01-15T00:58:14;98048.13;;;-5.18;100.00
25658;BME280;13517;59.320;18.042;2024-01-15T01:00:39;98056.97;;;-5.19;100.00
25658;BME280;13517;59.320;18.042;2024-01-15T01:03:06;98025.28;;;-5.37;100.00
25658;BME280;13517;59.320;18.042;2024-01-15T01:05:31;98021.84;;;-5.39;100.00
25658;BME280;13517;59.320;18.042;2024-01-15T01:07:56;98019.41;;;-5.23;100.00
25658;BME280;13517;59.320;18.042;2024-01-15T01:10:22;98007.56;;;-5.33;100.00
25658;BME280;13517;59.320;18.042;2024-01-15T01:12:47;98034.19;;;-5.20;100.00
25658;BME280;13517;59.320;18.042;2024-01-15T01:15:12;97984.16;;;-5.39;100.00
25658;BME280;13517;59.320;18.042;2024-01-15T01:17:38;98031.06;;;-5.28;100.00
25658;BME280;13517;59.320;18.042;2024-01-15T01:20:04;98012.84;;;-5.33;100.00
25658;BME280;13517;59.320;18.042;2024-01-15T01:22:31;97989.63;;;-5.44;100.00
25658;BME280;13517;59.320;18.042;2024-01-15T01:24:56;98014.66;;;-5.35;100.00
25658;BME280;13517;59.320;18.042;2024-01-15T01:27:22;98023.56;;;-5.38;100.00
25658;BME280;13517;59.320;18.042;2024-01-15T01:29:47;98008.78;;;-5.40;100.00
25658;BME280;13517;59.320;18.042;2024-01-15T01:32:13;98015.00;;;-5.43;100.00
25658;BME280;13517;59.320;18.042;2024-01-15T01:34:41;98010.69;;;-5.44;100.00
25658;BME280;13517;59.320;18.042;2024-01-15T01:37:10;97990.94;;;-5.54;100.00
25658;BME280;13517;59.320;18.042;2024-01-15T01:39:39;97976.13;;;-5.57;100.00
25658;BME280;13517;59.320;18.042;2024-01-15T01:42:05;97995.88;;;-5.47;100.00
25658;BME280;13517;59.320;18.042;2024-01-15T01:44:31;97983.44;;;-5.64;100.00
25658;BME280;13517;59.320;18.042;2024-01-15T01:46:57;98018.06;;;-5.52;100.00
25658;BME280;13517;59.320;18.042;2024-01-15T01:49:24;97999.75;;;-5.55;100.00
25658;BME280;13517;59.320;18.042;2024-01-15T01:51:50;97997.06;;;-5.54;100.00
25658;BME280;13517;59.320;18.042;2024-01-15T01:54:16;97995.41;;;-5.56;100.00
25658;BME280;13517;59.320;18.042;2024-01-15T01:56:42;97997.13;;;-5.55;100.00
25658;BME280;13517;59.320;18.042;2024-01-15T01:59:09;97998.81;;;-5.54;100.00
25658;BME280;13517;59.320;18.042;2024-01-15T02:01:36;97995.47;;;-5.58;100.00
25658;BME280;13517;59.320;18.042;2024-01-15T02:04:02;97964.38;;;-5.69;100.00
25658;BME280;13517;59.320;18.042;2024-01-15T02:06:28;97979.22;;;-5.68;100.00
25658;BME280;13517;59.320;18.042;2024-01-15T02:08:54;97987.00;;;-5.65;100.00
25658;BME280;13517;59.320;18.042;2024-01-15T02:11:20;97981.81;;;-5.66;100.00
25658;BME280;13517;59.320;18.042;2024-01-15T02:13:45;97983.72;;;-5.70;100.00
25658;BME280;13517;59.320;18.042;2024-01-15T02:16:11;98011.59;;;-5.66;100.00
25658;BME280;13517;59.320;18.042;2024-01-15T02:18:41;97985.31;;;-5.66;100.00
25658;BME280;13517;59.320;18.042;2024-01-15T02:21:06;97979.97;;;-5.64;100.00
25658;BME280;13517;59.320;18.042;2024-01-15T02:23:31;97985.31;;;-5.66;100.00
25658;BME280;13517;59.320;18.042;2024-01-15T02:25:57;97984.38;;;-5.65;100.00
25658;BME280;13517;59.320;18.042;2024-01-15T02:28:22;97977.41;;;-5.66;100.00
25658;BME280;13517;59.320;18.042;2024-01-15T02:30:48;97977.41;;;-5.66;100.00
25658;BME280;13517;59.320;18.042;2024-01-15T02:33:13;97979.16;;;-5.66;100.00
25658;BME280;13517;59.320;18.042;2024-01-15T02:35:38;97973.06;;;-5.67;100.00
25658;BME280;13517;59.320;18.042;2024-01-15T02:38:05;97977.16;;;-5.80;100.00
25658;BME280;13517;59.320;18.042;2024-01-15T02:40:30;97963.06;;;-5.79;100.00
25658;BME280;13517;59.320;18.042;2024-01-15T02:42:56;97957.00;;;-5.81;100.00
25658;BME280;13517;59.320;18.042;2024-01-15T02:45:22;97971.59;;;-5.74;100.00
25658;BME280;13517;59.320;18.042;2024-01-15T02:47:48;97955.97;;;-5.77;100.00
25658;BME280;13517;59.320;18.042;2024-01-15T02:50:13;97953.28;;;-5.76;100.00
25658;BME280;13517;59.320;18.042;2024-01-15T02:52:39;97960.25;;;-5.75;100.00
25658;BME280;13517;59.320;18.042;2024-01-15T02:55:05;97949.59;;;-5.92;100.00
25658;BME280;13517;59.320;18.042;2024-01-15T02:57:30;97962.16;;;-5.78;100.00
25658;BME280;13517;59.320;18.042;2024-01-15T02:59:56;97931.59;;;-6.02;100.00
25658;BME280;13517;59.320;18.042;2024-01-15T03:02:21;97948.75;;;-5.93;100.00
25658;BME280;13517;59.320;18.042;2024-01-15T03:04:46;97983.31;;;-5.81;100.00
25658;BME280;13517;59.320;18.042;2024-01-15T03:07:12;97958.47;;;-5.95;100.00
25658;BME280;13517;59.320;18.042;2024-01-15T03:09:38;97985.94;;;-5.81;100.00
25658;BME280;13517;59.320;18.042;2024-01-15T03:12:04;97929.72;;;-5.99;100.00
25658;BME280;13517;59.320;18.042;2024-01-15T03:14:29;97976.34;;;-5.82;100.00
25658;BME280;13517;59.320;18.042;2024-01-15T03:16:55;97971.34;;;-5.89;100.00
25658;BME280;13517;59.320;18.042;2024-01-15T03:19:20;97947.06;;;-6.14;100.00
25658;BME280;13517;59.320;18.042;2024-01-15T03:21:46;97959.44;;;-5.97;100.00
25658;BME280;13517;59.320;18.042;2024-01-15T03:24:11;97950.22;;;-6.06;100.00
25658;BME280;13517;59.320;18.042;2024-01-15T03:26:36;97966.47;;;-5.98;100.00
25658;BME280;13517;59.320;18.042;2024-01-15T03:29:02;97984.63;;;-5.92;100.00
25658;BME280;13517;59.320;18.042;2024-01-15T03:31:27;97940.69;;;-6.09;100.00
25658;BME280;13517;59.320;18.042;2024-01-15T03:33:53;97937.47;;;-6.16;100.00
25658;BME280;13517;59.320;18.042;2024-01-15T03:36:18;97960.00;;;-6.10;100.00
25658;BME280;13517;59.320;18.042;2024-01-15T03:38:43;98001.56;;;-5.99;100.00
25658;BME280;13517;59.320;18.042;2024-01-15T03:41:09;97986.72;;;-6.00;100.00
25658;BME280;13517;59.320;18.042;2024-01-15T03:43:34;97987.50;;;-5.98;100.00
25658;BME280;13517;59.320;18.042;2024-01-15T03:46:00;97978.13;;;-6.04;100.00
25658;BME280;13517;59.320;18.042;2024-01-15T03:48:25;97985.25;;;-6.06;100.00
25658;BME280;13517;59.320;18.042;2024-01-15T03:50:51;97987.66;;;-6.01;100.00
25658;BME280;13517;59.320;18.042;2024-01-15T03:53:16;97979.75;;;-6.01;100.00
25658;BME280;13517;59.320;18.042;2024-01-15T03:55:42;97989.50;;;-6.03;100.00
25658;BME280;13517;59.320;18.042;2024-01-15T03:58:07;97974.41;;;-5.99;100.00
25658;BME280;13517;59.320;18.042;2024-01-15T04:00:33;97989.41;;;-6.02;100.00
25658;BME280;13517;59.320;18.042;2024-01-15T04:02:58;97984.22;;;-6.03;100.00
25658;BME280;13517;59.320;18.042;2024-01-15T04:05:23;97963.53;;;-6.11;100.00
25658;BME280;13517;59.320;18.042;2024-01-15T04:07:49;97966.38;;;-6.16;100.00
25658;BME280;13517;59.320;18.042;2024-01-15T04:10:14;97983.94;;;-6.18;100.00
25658;BME280;13517;59.320;18.042;2024-01-15T04:12:40;97985.41;;;-6.10;100.00
25658;BME280;13517;59.320;18.042;2024-01-15T04:15:05;97945.94;;;-6.31;100.00
25658;BME280;13517;59.320;18.042;2024-01-15T04:17:31;97959.94;;;-6.08;100.00
25658;BME280;13517;59.320;18.042;2024-01-15T04:19:56;97986.22;;;-6.08;100.00
25658;BME280;13517;59.320;18.042;2024-01-15T04:22:23;97955.25;;;-6.22;100.00
25658;BME280;13517;59.320;18.042;2024-01-15T04:24:48;97944.88;;;-6.25;100.00
25658;BME280;13517;59.320;18.042;2024-01-15T04:27:14;97994.88;;;-6.06;100.00
25658;BME280;13517;59.320;18.042;2024-01-15T04:29:39;97975.03;;;-6.13;100.00
25658;BME280;13517;59.320;18.042;2024-01-15T04:32:05;97980.41;;;-6.17;100.00
25658;BME280;13517;59.320;18.042;2024-01-15T04:34:30;97961.06;;;-6.36;100.00
25658;BME280;13517;59.320;18.042;2024-01-15T04:36:56;97992.88;;;-6.22;100.00
25658;BME280;13517;59.320;18.042;2024-01-15T04:39:21;98016.63;;;-6.25;100.00
25658;BME280;13517;59.320;18.042;2024-01-15T04:41:47;97952.31;;;-6.37;100.00
25658;BME280;13517;59.320;18.042;2024-01-15T04:44:13;97974.31;;;-6.39;100.00
25658;BME280;13517;59.320;18.042;2024-01-15T04:46:38;97952.75;;;-6.48;100.00
25658;BME280;13517;59.320;18.042;2024-01-15T04:49:03;97993.31;;;-6.33;100.00
25658;BME280;13517;59.320;18.042;2024-01-15T04:51:29;97952.03;;;-6.51;100.00
25658;BME280;13517;59.320;18.042;2024-01-15T04:53:54;98006.50;;;-6.34;100.00
25658;BME280;13517;59.320;18.042;2024-01-15T04:56:20;98004.81;;;-6.35;100.00
25658;BME280;13517;59.320;18.042;2024-01-15T04:58:45;97997.94;;;-6.39;100.00
25658;BME280;13517;59.320;18.042;2024-01-15T05:01:11;97963.44;;;-6.52;100.00
25658;BME280;13517;59.320;18.042;2024-01-15T05:03:37;97974.81;;;-6.52;100.00
25658;BME280;13517;59.320;18.042;2024-01-15T05:06:02;97966.13;;;-6.54;100.00
25658;BME280;13517;59.320;18.042;2024-01-15T05:08:28;97967.47;;;-6.44;100.00
25658;BME280;13517;59.320;18.042;2024-01-15T05:10:53;97983.66;;;-6.32;100.00
25658;BME280;13517;59.320;18.042;2024-01-15T05:13:19;98010.72;;;-6.30;100.00
25658;BME280;13517;59.320;18.042;2024-01-15T05:15:45;97994.84;;;-6.27;100.00
25658;BME280;13517;59.320;18.042;2024-01-15T05:18:10;97980.03;;;-6.30;100.00
25658;BME280;13517;59.320;18.042;2024-01-15T05:20:36;98012.44;;;-6.29;100.00
25658;BME280;13517;59.320;18.042;2024-01-15T05:23:01;97991.44;;;-6.29;100.00
25658;BME280;13517;59.320;18.042;2024-01-15T05:25:26;98044.06;;;-6.32;100.00
25658;BME280;13517;59.320;18.042;2024-01-15T05:27:52;97971.44;;;-6.33;100.00
25658;BME280;13517;59.320;18.042;2024-01-15T05:30:17;98001.50;;;-6.40;100.00
25658;BME280;13517;59.320;18.042;2024-01-15T05:32:43;97968.47;;;-6.46;100.00
25658;BME280;13517;59.320;18.042;2024-01-15T05:35:08;97979.44;;;-6.59;100.00
25658;BME280;13517;59.320;18.042;2024-01-15T05:37:33;98000.38;;;-6.35;100.00
25658;BME280;13517;59.320;18.042;2024-01-15T05:39:59;97990.75;;;-6.34;100.00
25658;BME280;13517;59.320;18.042;2024-01-15T05:42:24;98010.84;;;-6.33;100.00
25658;BME280;13517;59.320;18.042;2024-01-15T05:44:54;97974.44;;;-6.43;100.00
25658;BME280;13517;59.320;18.042;2024-01-15T05:47:20;98009.28;;;-6.37;100.00
25658;BME280;13517;59.320;18.042;2024-01-15T05:49:45;98019.03;;;-6.41;100.00
25658;BME280;13517;59.320;18.042;2024-01-15T05:52:10;98000.56;;;-6.39;100.00
25658;BME280;13517;59.320;18.042;2024-01-15T05:54:36;98010.25;;;-6.40;100.00
25658;BME280;13517;59.320;18.042;2024-01-15T05:57:01;97954.28;;;-6.64;100.00
25658;BME280;13517;59.320;18.042;2024-01-15T05:59:27;98008.59;;;-6.43;100.00
25658;BME280;13517;59.320;18.042;2024-01-15T06:01:53;98013.94;;;-6.46;100.00
25658;BME280;13517;59.320;18.042;2024-01-15T06:04:18;97989.16;;;-6.61;100.00
25658;BME280;13517;59.320;18.042;2024-01-15T06:06:44;98006.88;;;-6.44;100.00
25658;BME280;13517;59.320;18.042;2024-01-15T06:09:10;98019.16;;;-6.44;100.00
25658;BME280;13517;59.320;18.042;2024-01-15T06:11:35;98004.59;;;-6.53;100.00
25658;BME280;13517;59.320;18.042;2024-01-15T06:14:00;98005.66;;;-6.57;100.00
25658;BME280;13517;59.320;18.042;2024-01-15T06:16:26;97998.84;;;-6.63;100.00
25658;BME280;13517;59.320;18.042;2024-01-15T06:18:51;98037.84;;;-6.52;100.00
25658;BME280;13517;59.320;18.042;2024-01-15T06:21:17;98050.84;;;-6.49;100.00
25658;BME280;13517;59.320;18.042;2024-01-15T06:23:43;98009.84;;;-6.53;100.00
25658;BME280;13517;59.320;18.042;2024-01-15T06:26:09;98007.22;;;-6.53;100.00
25658;BME280;13517;59.320;18.042;2024-01-15T06:28:36;98017.63;;;-6.74;100.00
25658;BME280;13517;59.320;18.042;2024-01-15T06:31:01;98024.78;;;-6.77;100.00
25658;BME280;13517;59.320;18.042;2024-01-15T06:33:27;98007.25;;;-6.77;100.00
25658;BME280;13517;59.320;18.042;2024-01-15T06:35:52;98027.16;;;-6.71;100.00
25658;BME280;13517;59.320;18.042;2024-01-15T06:38:17;98024.50;;;-6.70;100.00
25658;BME280;13517;59.320;18.042;2024-01-15T06:40:43;98029.50;;;-6.63;100.00
25658;BME280;13517;59.320;18.042;2024-01-15T06:43:11;98057.47;;;-6.62;100.00
25658;BME280;13517;59.320;18.042;2024-01-15T06:45:36;98035.34;;;-6.79;100.00
25658;BME280;13517;59.320;18.042;2024-01-15T06:48:02;98062.44;;;-6.54;100.00
25658;BME280;13517;59.320;18.042;2024-01-15T06:50:28;98000.41;;;-6.81;100.00
25658;BME280;13517;59.320;18.042;2024-01-15T06:52:53;97997.69;;;-6.78;100.00
25658;BME280;13517;59.320;18.042;2024-01-15T06:55:18;98066.88;;;-6.57;100.00
25658;BME280;13517;59.320;18.042;2024-01-15T06:57:44;98018.38;;;-6.70;100.00
25658;BME280;13517;59.320;18.042;2024-01-15T07:00:09;98046.69;;;-6.54;100.00
25658;BME280;13517;59.320;18.042;2024-01-15T07:02:35;98064.44;;;-6.61;100.00
25658;BME280;13517;59.320;18.042;2024-01-15T07:05:01;98059.88;;;-6.56;100.00
25658;BME280;13517;59.320;18.042;2024-01-15T07:07:26;98013.31;;;-6.75;100.00
25658;BME280;13517;59.320;18.042;2024-01-15T07:09:54;97994.03;;;-6.98;100.00
25658;BME280;13517;59.320;18.042;2024-01-15T07:12:20;98021.66;;;-6.87;100.00
25658;BME280;13517;59.320;18.042;2024-01-15T07:14:45;98045.72;;;-6.76;100.00
25658;BME280;13517;59.320;18.042;2024-01-15T07:17:11;98046.09;;;-6.63;100.00
25658;BME280;13517;59.320;18.042;2024-01-15T07:19:36;97979.25;;;-7.00;100.00
25658;BME280;13517;59.320;18.042;2024-01-15T07:22:02;98044.97;;;-6.79;100.00
25658;BME280;13517;59.320;18.042;2024-01-15T07:24:27;98054.91;;;-6.64;100.00
25658;BME280;13517;59.320;18.042;2024-01-15T07:26:53;98029.22;;;-6.79;100.00
25658;BME280;13517;59.320;18.042;2024-01-15T07:29:18;98071.53;;;-6.63;100.00
25658;BME280;13517;59.320;18.042;2024-01-15T07:31:49;98070.44;;;-6.81;100.00
25658;BME280;13517;59.320;18.042;2024-01-15T07:34:14;98071.75;;;-6.70;100.00
25658;BME280;13517;59.320;18.042;2024-01-15T07:36:39;98043.28;;;-6.80;100.00
25658;BME280;13517;59.320;18.042;2024-01-15T07:39:05;98042.88;;;-6.93;100.00
25658;BME280;13517;59.320;18.042;2024-01-15T07:41:31;98063.66;;;-6.63;100.00
25658;BME280;13517;59.320;18.042;2024-01-15T07:43:57;98053.16;;;-6.63;100.00
25658;BME280;13517;59.320;18.042;2024-01-15T07:46:22;98064.84;;;-6.72;100.00
25658;BME280;13517;59.320;18.042;2024-01-15T07:48:48;98090.88;;;-6.66;100.00
25658;BME280;13517;59.320;18.042;2024-01-15T07:51:13;98056.59;;;-6.63;100.00
25658;BME280;13517;59.320;18.042;2024-01-15T07:53:39;98100.22;;;-6.59;100.00
25658;BME280;13517;59.320;18.042;2024-01-15T07:56:05;98073.06;;;-6.58;100.00
25658;BME280;13517;59.320;18.042;2024-01-15T07:58:30;98078.25;;;-6.56;100.00
25658;BME280;13517;59.320;18.042;2024-01-15T08:00:55;98049.25;;;-6.77;100.00
25658;BME280;13517;59.320;18.042;2024-01-15T08:03:21;98053.31;;;-6.68;100.00
25658;BME280;13517;59.320;18.042;2024-01-15T08:05:46;98089.13;;;-6.65;100.00
25658;BME280;13517;59.320;18.042;2024-01-15T08:08:12;98071.56;;;-6.65;100.00
25658;BME280;13517;59.320;18.042;2024-01-15T08:10:37;98081.56;;;-6.75;100.00
25658;BME280;13517;59.320;18.042;2024-01-15T08:13:03;98077.38;;;-6.57;100.00
25658;BME280;13517;59.320;18.042;2024-01-15T08:15:28;98107.94;;;-6.54;100.00
25658;BME280;13517;59.320;18.042;2024-01-15T08:17:53;98080.16;;;-6.60;100.00
25658;BME280;13517;59.320;18.042;2024-01-15T08:20:19;98073.47;;;-6.68;100.00
25658;BME280;13517;59.320;18.042;2024-01-15T08:22:44;98087.50;;;-6.70;100.00
25658;BME280;13517;59.320;18.042;2024-01-15T08:25:10;98099.50;;;-6.62;100.00
25658;BME280;13517;59.320;18.042;2024-01-15T08:27:36;98108.84;;;-6.55;100.00
25658;BME280;13517;59.320;18.042;2024-01-15T08:30:01;98114.09;;;-6.55;100.00
25658;BME280;13517;59.320;18.042;2024-01-15T08:32:27;98090.41;;;-6.77;100.00
25658;BME280;13517;59.320;18.042;2024-01-15T08:34:52;98101.31;;;-6.64;100.00
25658;BME280;13517;59.320;18.042;2024-01-15T08:37:18;98085.78;;;-6.71;100.00
25658;BME280;13517;59.320;18.042;2024-01-15T08:39:44;98080.63;;;-6.74;100.00
25658;BME280;13517;59.320;18.042;2024-01-15T08:42:09;98080.19;;;-6.61;100.00
25658;BME280;13517;59.320;18.042;2024-01-15T08:44:36;98082.19;;;-6.68;100.00
25658;BME280;13517;59.320;18.042;2024-01-15T08:47:01;98112.97;;;-6.48;100.00
25658;BME280;13517;59.320;18.042;2024-01-15T08:49:28;98099.78;;;-6.46;100.00
25658;BME280;13517;59.320;18.042;2024-01-15T08:51:53;98052.75;;;-6.76;100.00
25658;BME280;13517;59.320;18.042;2024-01-15T08:54:18;98147.88;;;-6.46;100.00
25658;BME280;13517;59.320;18.042;2024-01-15T08:56:44;98118.13;;;-6.45;100.00
25658;BME280;13517;59.320;18.042;2024-01-15T08:59:10;98110.28;;;-6.46;100.00
25658;BME280;13517;59.320;18.042;2024-01-15T09:01:38;98111.94;;;-6.44;100.00
25658;BME280;13517;59.320;18.042;2024-01-15T09:04:03;98088.03;;;-6.84;100.00
25658;BME280;13517;59.320;18.042;2024-01-15T09:06:29;98122.69;;;-6.50;100.00
25658;BME280;13517;59.320;18.042;2024-01-15T09:08:54;98125.63;;;-6.59;100.00
25658;BME280;13517;59.320;18.042;2024-01-15T09:11:20;98122.97;;;-6.83;100.00
25658;BME280;13517;59.320;18.042;2024-01-15T09:13:45;98129.50;;;-6.46;100.00
25658;BME280;13517;59.320;18.042;2024-01-15T09:16:11;98035.31;;;-7.03;100.00
25658;BME280;13517;59.320;18.042;2024-01-15T09:18:36;98131.53;;;-6.52;100.00
25658;BME280;13517;59.320;18.042;2024-01-15T09:21:03;98118.78;;;-6.63;100.00
25658;BME280;13517;59.320;18.042;2024-01-15T09:23:28;98108.75;;;-6.52;100.00
25658;BME280;13517;59.320;18.042;2024-01-15T09:25:54;98138.47;;;-6.51;100.00
25658;BME280;13517;59.320;18.042;2024-01-15T09:28:19;98079.81;;;-6.74;100.00
25658;BME280;13517;59.320;18.042;2024-01-15T09:30:44;98128.94;;;-6.54;100.00
25658;BME280;13517;59.320;18.042;2024-01-15T09:33:10;98069.34;;;-6.76;100.00
25658;BME280;13517;59.320;18.042;2024-01-15T09:35:36;98129.41;;;-6.43;100.00
25658;BME280;13517;59.320;18.042;2024-01-15T09:38:02;98111.19;;;-6.47;100.00
25658;BME280;13517;59.320;18.042;2024-01-15T09:40:31;98109.13;;;-6.63;100.00
25658;BME280;13517;59.320;18.042;2024-01-15T09:42:57;98145.97;;;-6.40;100.00
25658;BME280;13517;59.320;18.042;2024-01-15T09:45:23;98149.56;;;-6.43;100.00
25658;BME280;13517;59.320;18.042;2024-01-15T09:47:48;98103.94;;;-6.64;100.00
25658;BME280;13517;59.320;18.042;2024-01-15T09:50:14;98096.88;;;-6.62;100.00
25658;BME280;13517;59.320;18.042;2024-01-15T09:52:40;98073.50;;;-6.70;100.00
25658;BME280;13517;59.320;18.042;2024-01-15T09:55:08;98172.97;;;-6.37;100.00
25658;BME280;13517;59.320;18.042;2024-01-15T09:57:34;98149.63;;;-6.45;100.00
25658;BME280;13517;59.320;18.042;2024-01-15T10:00:02;98152.19;;;-6.43;100.00
25658;BME280;13517;59.320;18.042;2024-01-15T10:02:32;98134.19;;;-6.54;100.00
25658;BME280;13517;59.320;18.042;2024-01-15T10:04:58;98100.44;;;-6.65;100.00
25658;BME280;13517;59.320;18.042;2024-01-15T10:07:25;98109.25;;;-6.66;100.00
25658;BME280;13517;59.320;18.042;2024-01-15T10:09:50;98121.38;;;-6.62;100.00
25658;BME280;13517;59.320;18.042;2024-01-15T10:12:16;98176.00;;;-6.48;100.00
25658;BME280;13517;59.320;18.042;2024-01-15T10:14:42;98174.91;;;-6.42;100.00
25658;BME280;13517;59.320;18.042;2024-01-15T10:17:14;98171.59;;;-6.47;100.00
25658;BME280;13517;59.320;18.042;2024-01-15T10:19:45;98163.44;;;-6.39;100.00
25658;BME280;13517;59.320;18.042;2024-01-15T10:22:13;98152.91;;;-6.39;100.00
25658;BME280;13517;59.320;18.042;2024-01-15T10:24:40;98142.59;;;-6.68;100.00
25658;BME280;13517;59.320;18.042;2024-01-15T10:27:07;98160.28;;;-6.49;100.00
25658;BME280;13517;59.320;18.042;2024-01-15T10:29:32;98131.88;;;-6.62;100.00
25658;BME280;13517;59.320;18.042;2024-01-15T10:31:59;98191.41;;;-6.38;100.00
25658;BME280;13517;59.320;18.042;2024-01-15T10:34:24;98159.66;;;-6.56;100.00
25658;BME280;13517;59.320;18.042;2024-01-15T10:36:50;98148.59;;;-6.40;100.00
25658;BME280;13517;59.320;18.042;2024-01-15T10:39:21;98155.38;;;-6.35;100.00
25658;BME280;13517;59.320;18.042;2024-01-15T10:41:46;98227.53;;;-6.20;100.00
25658;BME280;13517;59.320;18.042;2024-01-15T10:44:12;98165.97;;;-6.36;100.00
25658;BME280;13517;59.320;18.042;2024-01-15T10:46:37;98199.03;;;-6.31;100.00
25658;BME280;13517;59.320;18.042;2024-01-15T10:49:03;98162.41;;;-6.35;100.00
25658;BME280;13517;59.320;18.042;2024-01-15T10:51:29;98205.88;;;-6.26;100.00
25658;BME280;13517;59.320;18.042;2024-01-15T10:53:56;98179.66;;;-6.28;100.00
25658;BME280;13517;59.320;18.042;2024-01-15T10:56:22;98140.84;;;-6.44;100.00
25658;BME280;13517;59.320;18.042;2024-01-15T10:58:50;98176.72;;;-6.20;100.00
25658;BME280;13517;59.320;18.042;2024-01-15T11:01:16;98175.09;;;-6.23;100.00
25658;BME280;13517;59.320;18.042;2024-01-15T11:03:42;98167.88;;;-6.18;100.00
25658;BME280;13517;59.320;18.042;2024-01-15T11:06:24;98130.75;;;-6.32;100.00
25658;BME280;13517;59.320;18.042;2024-01-15T11:08:50;98145.00;;;-6.38;100.00
25658;BME280;13517;59.320;18.042;2024-01-15T11:11:17;98194.34;;;-6.22;100.00
25658;BME280;13517;59.320;18.042;2024-01-15T11:13:43;98203.19;;;-6.25;100.00
25658;BME280;13517;59.320;18.042;2024-01-15T11:16:13;98161.09;;;-6.47;100.00
25658;BME280;13517;59.320;18.042;2024-01-15T11:18:42;98185.75;;;-6.27;100.00
25658;BME280;13517;59.320;18.042;2024-01-15T11:23:56;98181.31;;;-6.25;100.00
25658;BME280;13517;59.320;18.042;2024-01-15T11:28:58;98181.78;;;-6.38;100.00
25658;BME280;13517;59.320;18.042;2024-01-15T11:34:06;98193.03;;;-6.34;100.00
25658;BME280;13517;59.320;18.042;2024-01-15T11:41:55;98159.66;;;-6.80;100.00
25658;BME280;13517;59.320;18.042;2024-01-15T11:44:21;98185.81;;;-6.53;100.00
25658;BME280;13517;59.320;18.042;2024-01-15T11:47:06;98134.88;;;-6.73;100.00
25658;BME280;13517;59.320;18.042;2024-01-15T11:52:11;98226.59;;;-6.43;100.00
25658;BME280;13517;59.320;18.042;2024-01-15T11:54:38;98216.19;;;-6.46;100.00
25658;BME280;13517;59.320;18.042;2024-01-15T11:57:15;98184.09;;;-6.54;100.00
25658;BME280;13517;59.320;18.042;2024-01-15T11:59:42;98190.03;;;-6.49;100.00
25658;BME280;13517;59.320;18.042;2024-01-15T12:02:08;98195.84;;;-6.64;100.00
25658;BME280;13517;59.320;18.042;2024-01-15T12:04:36;98229.66;;;-6.55;100.00
25658;BME280;13517;59.320;18.042;2024-01-15T12:07:02;98158.94;;;-6.85;100.00
25658;BME280;13517;59.320;18.042;2024-01-15T12:09:27;98188.28;;;-6.74;100.00
25658;BME280;13517;59.320;18.042;2024-01-15T12:11:59;98191.91;;;-6.76;100.00
25658;BME280;13517;59.320;18.042;2024-01-15T12:14:31;98181.28;;;-6.73;100.00
25658;BME280;13517;59.320;18.042;2024-01-15T12:16:56;98202.06;;;-6.67;100.00
25658;BME280;13517;59.320;18.042;2024-01-15T12:19:22;98202.22;;;-6.72;100.00
25658;BME280;13517;59.320;18.042;2024-01-15T12:21:48;98204.72;;;-6.68;100.00
25658;BME280;13517;59.320;18.042;2024-01-15T12:24:17;98187.28;;;-6.70;100.00
25658;BME280;13517;59.320;18.042;2024-01-15T12:26:42;98221.81;;;-6.57;100.00
25658;BME280;13517;59.320;18.042;2024-01-15T12:29:08;98242.06;;;-6.60;100.00
25658;BME280;13517;59.320;18.042;2024-01-15T12:31:34;98227.03;;;-6.55;100.00
25658;BME280;13517;59.320;18.042;2024-01-15T12:34:01;98224.44;;;-6.57;100.00
25658;BME280;13517;59.320;18.042;2024-01-15T12:36:26;98244.50;;;-6.54;100.00
25658;BME280;13517;59.320;18.042;2024-01-15T12:38:52;98251.53;;;-6.54;100.00
25658;BME280;13517;59.320;18.042;2024-01-15T12:41:17;98234.31;;;-6.63;100.00
25658;BME280;13517;59.320;18.042;2024-01-15T12:43:43;98260.47;;;-6.60;100.00
25658;BME280;13517;59.320;18.042;2024-01-15T12:46:08;98179.28;;;-6.92;100.00
25658;BME280;13517;59.320;18.042;2024-01-15T12:48:34;98233.34;;;-6.61;100.00
25658;BME280;13517;59.320;18.042;2024-01-15T12:51:00;98240.19;;;-6.57;100.00